createdAt,value
2022-08-10T00:03:01.775Z,4.40
2022-08-10T00:06:05.740Z,4.33
2022-08-10T00:09:09.422Z,4.07
2022-08-10T00:12:14.441Z,4.50
2022-08-10T00:15:44.416Z,4.67
2022-08-10T00:18:46.404Z,4.30
2022-08-10T00:21:50.276Z,4.23
2022-08-10T00:24:57.398Z,3.97
2022-08-10T00:28:04.257Z,4.33
2022-08-10T00:31:08.177Z,3.80
2022-08-10T00:34:12.012Z,3.97
2022-08-10T00:37:17.373Z,3.83
2022-08-10T00:40:37.303Z,4.27
2022-08-10T00:43:42.972Z,4.27
2022-08-10T00:46:47.383Z,4.33
2022-08-10T00:49:53.232Z,4.07
2022-08-10T00:52:57.287Z,4.73
2022-08-10T00:57:12.160Z,4.63
2022-08-10T00:59:27.426Z,4.90
2022-08-10T01:02:33.388Z,4.40
2022-08-10T01:05:51.565Z,4.60
2022-08-10T01:09:07.450Z,4.97
2022-08-10T01:12:40.698Z,4.67
2022-08-10T01:15:57.871Z,4.57
2022-08-10T01:19:22.476Z,4.27
2022-08-10T01:23:03.658Z,4.13
2022-08-10T01:26:41.216Z,4.53
2022-08-10T01:30:09.813Z,4.57
2022-08-10T01:33:31.762Z,5.13
2022-08-10T01:37:00.918Z,5.30
2022-08-10T01:40:13.625Z,5.53
2022-08-10T01:43:22.035Z,5.17
2022-08-10T01:46:30.383Z,5.23
2022-08-10T01:49:35.970Z,4.73
2022-08-10T01:52:44.267Z,5.00
2022-08-10T01:55:51.094Z,5.20
2022-08-10T01:59:01.042Z,5.80
2022-08-10T02:02:11.370Z,5.17
2022-08-10T02:05:17.044Z,5.63
2022-08-10T02:08:24.354Z,5.90
2022-08-10T02:11:29.806Z,5.20
2022-08-10T02:14:59.952Z,5.30
2022-08-10T02:18:08.232Z,4.80
2022-08-10T02:21:15.063Z,4.70
2022-08-10T02:24:22.004Z,5.47
2022-08-10T02:27:28.636Z,4.87
2022-08-10T02:30:35.026Z,4.63
2022-08-10T02:33:56.369Z,4.97
2022-08-10T02:37:10.737Z,5.77
2022-08-10T02:45:14.465Z,5.47
2022-08-10T02:45:20.243Z,5.30
2022-08-10T02:47:23.730Z,4.93
2022-08-10T02:50:34.288Z,4.57
2022-08-10T02:53:54.355Z,4.20
2022-08-10T02:57:11.645Z,4.03
2022-08-10T03:00:16.343Z,4.00
2022-08-10T03:03:25.911Z,4.33
2022-08-10T03:06:43.676Z,5.07
2022-08-10T03:09:51.292Z,4.90
2022-08-10T03:13:01.452Z,5.30
2022-08-10T03:16:06.973Z,4.47
2022-08-10T03:20:33.336Z,4.90
2022-08-10T03:22:40.927Z,4.77
2022-08-10T03:25:52.686Z,4.70
2022-08-10T03:29:00.017Z,4.67
2022-08-10T03:32:06.831Z,4.27
2022-08-10T03:35:12.311Z,4.57
2022-08-10T03:38:17.385Z,4.93
2022-08-10T03:41:29.748Z,4.77
2022-08-10T03:44:47.279Z,4.53
2022-08-10T03:47:55.656Z,3.80
2022-08-10T03:51:01.129Z,4.20
2022-08-10T03:54:07.968Z,4.50
2022-08-10T03:57:12.980Z,4.03
2022-08-10T04:00:18.870Z,3.90
2022-08-10T04:03:22.605Z,4.27
2022-08-10T04:06:33.365Z,4.47
2022-08-10T04:09:53.986Z,3.63
2022-08-10T04:12:59.900Z,4.50
2022-08-10T04:16:07.418Z,4.47
2022-08-10T04:19:13.157Z,4.20
2022-08-10T04:22:26.829Z,4.60
2022-08-10T04:25:33.112Z,4.47
2022-08-10T04:28:37.608Z,4.43
2022-08-10T04:31:44.692Z,4.43
2022-08-10T04:34:50.516Z,4.57
2022-08-10T04:37:57.885Z,4.80
2022-08-10T04:41:03.572Z,4.70
2022-08-10T04:44:07.285Z,5.07
2022-08-10T04:47:11.108Z,5.17
2022-08-10T04:50:15.384Z,5.10
2022-08-10T04:53:21.864Z,5.10
2022-08-10T04:56:31.485Z,4.67
2022-08-10T04:59:35.904Z,5.10
2022-08-10T05:02:39.992Z,5.30
2022-08-10T05:05:43.982Z,5.00
2022-08-10T05:08:47.676Z,4.73
2022-08-10T05:11:52.687Z,4.80
2022-08-10T05:14:56.617Z,5.10
2022-08-10T05:18:08.692Z,4.70
2022-08-10T05:21:52.055Z,5.00
2022-08-10T05:24:38.740Z,4.70
2022-08-10T05:27:45.135Z,5.00
2022-08-10T05:30:49.531Z,5.00
2022-08-10T05:33:53.201Z,4.50
2022-08-10T05:36:58.232Z,4.60
2022-08-10T05:40:06.205Z,5.03
2022-08-10T05:43:11.523Z,5.00
2022-08-10T05:46:21.129Z,4.43
2022-08-10T05:49:24.936Z,4.90
2022-08-10T05:52:28.626Z,4.77
2022-08-10T05:55:32.993Z,4.80
2022-08-10T05:58:38.932Z,4.60
2022-08-10T06:02:33.842Z,5.33
2022-08-10T06:05:12.489Z,5.20
2022-08-10T06:08:21.693Z,5.43
2022-08-10T06:12:26.844Z,5.00
2022-08-10T06:15:05.540Z,5.00
2022-08-10T06:18:11.603Z,5.07
2022-08-10T06:21:16.637Z,4.90
2022-08-10T06:24:25.562Z,4.83
2022-08-10T06:27:35.934Z,4.90
2022-08-10T06:30:43.235Z,4.80
2022-08-10T06:33:48.237Z,4.50
2022-08-10T06:36:54.208Z,4.13
2022-08-10T06:39:58.319Z,3.87
2022-08-10T06:43:07.839Z,4.50
2022-08-10T06:46:18.347Z,4.50
2022-08-10T06:49:24.440Z,3.80
2022-08-10T06:52:32.785Z,4.03
2022-08-10T06:55:40.157Z,3.73
2022-08-10T06:59:08.088Z,4.53
2022-08-10T07:02:29.387Z,3.20
2022-08-10T07:05:39.110Z,3.37
2022-08-10T07:08:44.439Z,3.40
2022-08-10T07:11:52.001Z,3.00
2022-08-10T07:14:59.412Z,3.03
2022-08-10T07:18:06.423Z,3.63
2022-08-10T07:21:12.612Z,3.00
2022-08-10T07:24:18.817Z,3.67
2022-08-10T07:27:24.982Z,3.27
2022-08-10T07:30:31.326Z,2.90
2022-08-10T07:33:37.987Z,2.93
2022-08-10T07:36:45.860Z,3.03
2022-08-10T07:40:02.088Z,2.40
2022-08-10T07:43:11.088Z,2.37
2022-08-10T07:46:18.277Z,2.80
2022-08-10T07:49:28.964Z,2.83
2022-08-10T07:52:39.996Z,2.50
2022-08-10T07:56:08.098Z,3.03
2022-08-10T07:59:17.067Z,2.63
2022-08-10T08:02:30.013Z,2.77
2022-08-10T08:05:58.971Z,2.33
2022-08-10T08:09:07.015Z,2.40
2022-08-10T08:12:12.531Z,2.50
2022-08-10T08:16:17.221Z,2.80
2022-08-10T08:19:09.586Z,2.33
2022-08-10T08:24:09.601Z,2.53
2022-08-10T08:25:44.463Z,2.10
2022-08-10T08:28:50.118Z,1.83
2022-08-10T08:32:02.157Z,1.60
2022-08-10T08:35:10.415Z,2.10
2022-08-10T08:38:33.972Z,1.57
2022-08-10T08:42:04.062Z,2.00
2022-08-10T08:45:25.259Z,1.60
2022-08-10T08:48:51.248Z,2.10
2022-08-10T08:52:18.228Z,2.07
2022-08-10T08:56:03.164Z,1.90
2022-08-10T08:59:36.535Z,1.67
2022-08-10T09:03:12.874Z,1.90
2022-08-10T09:06:44.971Z,1.90
2022-08-10T09:10:11.424Z,2.13
2022-08-10T09:13:29.782Z,1.70
2022-08-10T09:16:46.986Z,1.83
2022-08-10T09:20:00.032Z,1.83
2022-08-10T09:23:15.420Z,1.70
2022-08-10T09:26:22.590Z,2.03
2022-08-10T09:29:32.502Z,2.10
2022-08-10T09:36:14.871Z,1.90
2022-08-10T09:36:33.257Z,1.93
2022-08-10T09:40:56.432Z,2.40
2022-08-10T09:43:26.714Z,1.67
2022-08-10T09:46:55.754Z,1.80
2022-08-10T09:50:17.307Z,1.90
2022-08-10T09:53:39.390Z,1.73
2022-08-10T09:57:17.962Z,1.70
2022-08-10T10:00:27.700Z,1.73
2022-08-10T10:03:46.151Z,1.63
2022-08-10T10:06:57.699Z,2.00
2022-08-10T10:10:11.808Z,1.60
2022-08-10T10:14:01.529Z,3.97
2022-08-10T10:17:08.995Z,1.83
2022-08-10T10:20:27.073Z,1.80
2022-08-10T10:24:19.800Z,1.73
2022-08-10T10:27:34.003Z,1.80
2022-08-10T10:30:54.245Z,2.10
2022-08-10T10:34:13.591Z,1.80
2022-08-10T10:38:02.200Z,2.10
2022-08-10T10:40:56.800Z,1.73
2022-08-10T10:44:20.400Z,1.67
2022-08-10T10:48:00.715Z,2.00
2022-08-10T10:51:17.868Z,1.70
2022-08-10T10:54:36.975Z,1.70
2022-08-10T10:57:58.503Z,1.70
2022-08-10T11:01:21.974Z,1.83
2022-08-10T11:04:35.799Z,2.07
2022-08-10T11:07:53.538Z,1.57
2022-08-10T11:11:20.533Z,1.90
2022-08-10T11:14:42.467Z,1.80
2022-08-10T11:17:53.576Z,1.70
2022-08-10T11:21:13.554Z,1.67
2022-08-10T11:24:47.941Z,1.80
2022-08-10T11:28:08.241Z,1.53
2022-08-10T11:31:22.816Z,1.47
2022-08-10T11:34:48.170Z,1.50
2022-08-10T11:38:28.373Z,1.40
2022-08-10T11:42:07.949Z,1.57
2022-08-10T11:45:31.440Z,1.30
2022-08-10T11:48:54.546Z,1.40
2022-08-10T11:52:07.690Z,1.50
2022-08-10T11:55:20.110Z,1.60
2022-08-10T11:58:45.675Z,1.50
2022-08-10T12:01:55.717Z,1.23
2022-08-10T12:05:09.632Z,1.40
2022-08-10T12:10:06.916Z,1.50
2022-08-10T12:11:43.941Z,1.10
2022-08-10T12:14:56.725Z,1.50
2022-08-10T12:18:13.683Z,1.20
2022-08-10T12:21:24.029Z,1.30
2022-08-10T12:24:38.761Z,1.50
2022-08-10T12:27:49.943Z,1.00
2022-08-10T12:31:00.532Z,1.40
2022-08-10T12:34:21.483Z,1.20
2022-08-10T12:37:36.437Z,1.20
2022-08-10T12:40:47.910Z,1.50
2022-08-10T12:44:06.787Z,1.17
2022-08-10T12:47:27.174Z,1.63
2022-08-10T12:50:43.161Z,1.93
2022-08-10T12:53:56.653Z,1.40
2022-08-10T12:57:05.109Z,1.20
2022-08-10T13:00:17.738Z,1.23
2022-08-10T13:04:23.228Z,1.20
2022-08-10T13:06:54.175Z,1.20
2022-08-10T13:10:05.972Z,1.50
2022-08-10T13:13:14.871Z,1.50
2022-08-10T13:16:23.485Z,1.60
2022-08-10T13:19:55.229Z,2.10
2022-08-10T13:23:00.977Z,1.40
2022-08-10T13:26:06.570Z,1.73
2022-08-10T13:29:17.868Z,1.40
2022-08-10T13:32:31.781Z,1.87
2022-08-10T13:35:37.264Z,1.30
2022-08-10T13:38:43.990Z,1.70
2022-08-10T13:41:50.407Z,1.30
2022-08-10T13:44:57.170Z,1.20
2022-08-10T13:48:14.278Z,1.63
2022-08-10T13:51:21.715Z,1.20
2022-08-10T13:54:49.099Z,1.47
2022-08-10T13:57:59.371Z,1.13
2022-08-10T14:01:13.902Z,1.40
2022-08-10T14:04:19.374Z,1.10
2022-08-10T14:07:27.164Z,1.60
2022-08-10T14:11:09.719Z,1.10
2022-08-10T14:14:09.244Z,1.30
2022-08-10T14:17:15.051Z,1.10
2022-08-10T14:20:22.556Z,1.20
2022-08-10T14:23:27.033Z,1.27
2022-08-10T14:26:33.334Z,1.00
2022-08-10T14:29:47.550Z,1.30
2022-08-10T14:32:53.875Z,1.17
2022-08-10T14:36:19.739Z,1.50
2022-08-10T14:39:43.900Z,1.27
2022-08-10T14:42:57.253Z,1.30
2022-08-10T14:46:06.927Z,1.20
2022-08-10T14:49:26.292Z,1.43
2022-08-10T14:52:36.978Z,1.17
2022-08-10T14:55:59.221Z,1.37
2022-08-10T14:59:09.436Z,1.00
2022-08-10T15:02:40.730Z,1.47
2022-08-10T15:05:44.088Z,1.13
2022-08-10T15:08:51.219Z,1.10
2022-08-10T15:12:13.992Z,1.40
2022-08-10T15:15:45.458Z,1.40
2022-08-10T15:19:02.820Z,1.37
2022-08-10T15:22:47.089Z,1.40
2022-08-10T15:25:57.701Z,1.50
2022-08-10T15:29:23.577Z,1.50
2022-08-10T15:32:59.123Z,1.37
2022-08-10T15:36:24.235Z,1.60
2022-08-10T15:40:26.001Z,1.10
2022-08-10T15:43:20.905Z,1.20
2022-08-10T15:46:40.971Z,1.17
2022-08-10T15:49:58.288Z,1.30
2022-08-10T15:53:16.854Z,1.23
2022-08-10T15:56:31.351Z,1.00
2022-08-10T15:59:44.462Z,1.10
2022-08-10T16:02:55.625Z,1.17
2022-08-10T16:06:04.660Z,1.10
2022-08-10T16:10:10.514Z,1.10
2022-08-10T16:12:59.650Z,0.90
2022-08-10T16:16:08.419Z,0.90
2022-08-10T16:19:24.194Z,1.60
2022-08-10T16:22:37.130Z,1.20
2022-08-10T16:25:52.849Z,17.20
2022-08-10T16:29:09.131Z,1.80
2022-08-10T16:32:15.366Z,2.70
2022-08-10T16:35:23.436Z,1.10
2022-08-10T16:38:29.721Z,0.80
2022-08-10T16:42:04.183Z,1.00
2022-08-10T16:45:05.595Z,1.37
2022-08-10T16:48:11.341Z,2.30
2022-08-10T16:51:21.668Z,1.90
2022-08-10T16:54:29.168Z,1.10
2022-08-10T16:57:40.040Z,1.13
2022-08-10T17:00:47.493Z,0.90
2022-08-10T17:04:05.727Z,0.70
2022-08-10T17:07:18.543Z,0.97
2022-08-10T17:10:24.929Z,0.97
2022-08-10T17:13:30.926Z,1.00
2022-08-10T17:16:39.623Z,0.80
2022-08-10T17:19:46.714Z,0.90
2022-08-10T17:22:55.067Z,0.90
2022-08-10T17:26:08.724Z,0.90
2022-08-10T17:29:57.703Z,0.80
2022-08-10T17:32:52.684Z,0.80
2022-08-10T17:36:03.601Z,0.90
2022-08-10T17:39:13.917Z,1.10
2022-08-10T17:42:23.012Z,0.77
2022-08-10T17:45:47.013Z,0.90
2022-08-10T17:48:56.504Z,1.03
2022-08-10T17:52:02.767Z,1.00
2022-08-10T17:55:09.569Z,0.73
2022-08-10T17:58:18.014Z,0.73
2022-08-10T18:01:41.680Z,0.77
2022-08-10T18:04:53.577Z,0.83
2022-08-10T18:07:59.341Z,0.50
2022-08-10T18:11:06.092Z,0.90
2022-08-10T18:14:13.508Z,0.50
2022-08-10T18:17:23.391Z,1.00
2022-08-10T18:20:36.683Z,0.83
2022-08-10T18:23:44.713Z,0.90
2022-08-10T18:27:03.633Z,1.10
2022-08-10T18:30:11.026Z,0.80
2022-08-10T18:33:17.272Z,0.97
2022-08-10T18:36:23.299Z,0.70
2022-08-10T18:39:33.385Z,1.07
2022-08-10T18:42:48.913Z,1.10
2022-08-10T18:45:57.939Z,1.30
2022-08-10T18:49:07.059Z,1.10
2022-08-10T18:52:15.486Z,0.83
2022-08-10T18:55:26.852Z,0.80
2022-08-10T18:59:05.672Z,1.00
2022-08-10T19:02:42.632Z,0.60
2022-08-10T19:06:18.538Z,0.87
2022-08-10T19:09:46.756Z,0.93
2022-08-10T19:13:02.394Z,0.90
2022-08-10T19:16:20.871Z,1.00
2022-08-10T19:19:41.265Z,1.00
2022-08-10T19:22:55.317Z,1.00
2022-08-10T19:26:40.728Z,0.83
2022-08-10T19:30:10.182Z,1.43
2022-08-10T19:33:26.468Z,1.20
2022-08-10T19:36:46.626Z,0.90
2022-08-10T19:40:11.833Z,1.00
2022-08-10T19:43:59.170Z,1.13
2022-08-10T19:47:03.784Z,0.90
2022-08-10T19:50:17.264Z,1.00
2022-08-10T19:53:36.855Z,0.90
2022-08-10T19:56:56.290Z,1.37
2022-08-10T20:00:19.452Z,1.37
2022-08-10T20:03:36.547Z,1.00
2022-08-10T20:06:45.904Z,1.10
2022-08-10T20:10:00.446Z,0.90
2022-08-10T20:13:15.945Z,1.40
2022-08-10T20:16:23.724Z,1.10
2022-08-10T20:19:53.378Z,1.03
2022-08-10T20:23:13.897Z,1.57
2022-08-10T20:26:25.316Z,1.50
2022-08-10T20:29:58.664Z,1.10
2022-08-10T20:33:10.386Z,1.30
2022-08-10T20:36:26.863Z,1.63
2022-08-10T20:39:46.488Z,1.40
2022-08-10T20:43:10.621Z,1.30
2022-08-10T20:46:27.616Z,1.40
2022-08-10T20:49:44.813Z,1.30
2022-08-10T20:52:52.996Z,1.60
2022-08-10T20:56:13.874Z,1.47
2022-08-10T21:00:04.423Z,1.63
2022-08-10T21:03:33.808Z,1.70
2022-08-10T21:08:00.489Z,1.63
2022-08-10T21:11:16.864Z,1.50
2022-08-10T21:14:45.058Z,2.40
2022-08-10T21:18:05.793Z,2.00
2022-08-10T21:21:41.605Z,2.10
2022-08-10T21:24:54.735Z,2.17
2022-08-10T21:29:03.322Z,1.90
2022-08-10T21:32:23.512Z,2.20
2022-08-10T21:35:40.667Z,2.17
2022-08-10T21:38:57.265Z,2.10
2022-08-10T21:42:36.827Z,1.93
2022-08-10T21:46:08.630Z,2.23
2022-08-10T21:49:43.998Z,2.80
2022-08-10T21:53:17.174Z,2.33
2022-08-10T21:56:50.347Z,2.50
2022-08-10T22:00:22.416Z,2.53
2022-08-10T22:03:44.776Z,2.87
2022-08-10T22:07:09.171Z,2.47
2022-08-10T22:10:35.457Z,2.57
2022-08-10T22:14:05.069Z,3.00
2022-08-10T22:21:28.783Z,2.80
2022-08-10T22:25:24.453Z,3.20
2022-08-10T22:28:45.740Z,3.00
2022-08-10T22:31:27.154Z,2.97
2022-08-10T22:32:24.506Z,2.90
2022-08-10T22:36:17.793Z,2.90
2022-08-10T22:40:12.353Z,2.73
2022-08-10T22:43:46.054Z,3.17
2022-08-10T22:47:09.266Z,3.40
2022-08-10T22:50:18.312Z,2.97
2022-08-10T22:53:50.703Z,3.07
2022-08-10T22:57:12.107Z,2.87
2022-08-10T23:00:30.836Z,3.00
2022-08-10T23:03:47.401Z,2.90
2022-08-10T23:06:58.312Z,3.60
2022-08-10T23:10:07.660Z,3.50
2022-08-10T23:13:29.426Z,3.00
2022-08-10T23:17:06.692Z,3.20
2022-08-10T23:20:19.045Z,3.43
2022-08-10T23:23:27.055Z,3.20
2022-08-10T23:26:35.650Z,3.53
2022-08-10T23:30:04.091Z,3.23
2022-08-10T23:33:10.793Z,3.57
2022-08-10T23:36:34.427Z,3.70
2022-08-10T23:39:44.716Z,3.37
2022-08-10T23:42:53.379Z,3.20
2022-08-10T23:46:01.490Z,3.40
2022-08-10T23:49:11.571Z,3.30
2022-08-10T23:52:21.734Z,3.70
2022-08-10T23:55:29.965Z,3.40
2022-08-10T23:58:44.595Z,3.17
